Time;durP1;ratioP1;P1;durP2;ratioP2;P2;SDS_P1;SDS_P2;PMS_P1;PMS_P2;Temp;Humidity;BMP_temperature;BMP_pressure;BME280_temperature;BME280_humidity;BME280_pressure;Samples;Min_cycle;Max_cycle;Signal;HPM_P1;HPM_P2
2023/12/06 00:00:27;;;;;;;2.50;2.40;;;5.80;99.90;;;5.96;100.00;99885.25;4873664;28;24493;-69
2023/12/06 00:02:49;;;;;;;2.75;2.60;;;5.90;99.90;;;5.97;100.00;99889.50;4894274;28;24534;-70
2023/12/06 00:05:12;;;;;;;2.40;2.30;;;5.80;99.90;;;5.98;100.00;99883.41;4894156;28;24426;-71
2023/12/06 00:07:34;;;;;;;3.07;2.87;;;5.80;99.90;;;6.01;100.00;99890.13;4888364;28;24458;-70
2023/12/06 00:09:58;;;;;;;2.47;2.38;;;5.80;99.90;;;6.04;100.00;99882.19;4881219;28;24522;-70
2023/12/06 00:12:20;;;;;;;2.50;2.40;;;5.90;99.90;;;6.05;100.00;99887.25;4883134;28;24435;-68
2023/12/06 00:14:42;;;;;;;2.70;2.60;;;5.90;99.90;;;6.07;100.00;99882.81;4891742;28;25029;-71
2023/12/06 00:17:04;;;;;;;2.63;2.53;;;5.90;99.90;;;6.08;100.00;99889.66;4884484;28;24459;-70
2023/12/06 00:19:26;;;;;;;2.65;2.50;;;5.90;99.90;;;6.04;100.00;99897.72;4887612;28;24458;-71
2023/12/06 00:21:48;;;;;;;2.40;2.30;;;5.90;99.90;;;6.02;100.00;99887.47;4893680;28;24534;-71
2023/12/06 00:24:10;;;;;;;2.60;2.50;;;5.90;99.90;;;5.98;100.00;99886.00;4891403;28;24442;-71
2023/12/06 00:26:32;;;;;;;2.95;2.75;;;5.90;99.90;;;6.02;100.00;99895.25;4893462;28;24462;-71
2023/12/06 00:28:54;;;;;;;2.70;2.60;;;5.80;99.90;;;6.06;100.00;99901.88;4892651;28;24530;-70
2023/12/06 00:31:16;;;;;;;2.70;2.60;;;5.90;99.90;;;6.08;100.00;99894.84;4906541;28;25002;-71
2023/12/06 00:33:38;;;;;;;2.60;2.50;;;5.90;99.90;;;6.07;100.00;99885.38;4893134;28;24653;-71
2023/12/06 00:36:00;;;;;;;2.60;2.40;;;5.90;99.90;;;5.96;100.00;99900.78;4887170;28;24433;-69
2023/12/06 00:38:22;;;;;;;2.85;2.65;;;5.90;99.90;;;5.97;100.00;99904.22;4887015;28;24435;-70
2023/12/06 00:40:44;;;;;;;2.90;2.70;;;5.90;99.90;;;5.94;100.00;99902.66;4888553;28;24466;-70
2023/12/06 00:43:06;;;;;;;3.00;2.80;;;5.80;99.90;;;5.90;100.00;99902.97;4879881;28;24565;-71
2023/12/06 00:45:28;;;;;;;2.90;2.70;;;5.80;99.90;;;5.92;100.00;99906.28;4885902;28;24872;-71
2023/12/06 00:47:50;;;;;;;2.70;2.50;;;5.80;99.90;;;5.87;100.00;99900.56;4878748;28;20785;-69
2023/12/06 00:50:12;;;;;;;2.90;2.70;;;5.80;99.90;;;5.87;100.00;99908.34;4882787;28;25021;-71
2023/12/06 00:52:34;;;;;;;3.20;2.90;;;5.70;99.90;;;5.89;100.00;99914.25;4874058;28;24493;-70
2023/12/06 00:54:56;;;;;;;3.00;2.80;;;5.70;99.90;;;5.85;100.00;99912.78;4873489;28;24840;-71
2023/12/06 00:57:18;;;;;;;3.07;2.87;;;5.70;99.90;;;5.85;100.00;99913.63;4909557;28;24433;-71
2023/12/06 00:59:40;;;;;;;3.10;2.90;;;5.70;99.90;;;5.90;100.00;99915.91;4892973;28;24814;-70
2023/12/06 01:02:02;;;;;;;3.17;2.92;;;5.70;99.90;;;5.93;100.00;99918.28;4893730;28;24423;-70
2023/12/06 01:04:24;;;;;;;3.00;2.80;;;5.70;99.90;;;5.93;100.00;99915.69;4879549;28;24447;-69
2023/12/06 01:06:46;;;;;;;2.70;2.60;;;5.80;99.90;;;5.95;100.00;99917.28;4884087;28;24419;-70
2023/12/06 01:09:08;;;;;;;2.90;2.70;;;5.80;99.90;;;5.97;100.00;99918.00;4882255;28;24471;-68
2023/12/06 01:11:30;;;;;;;3.38;3.10;;;5.80;99.90;;;6.00;100.00;99920.41;4877765;28;25014;-70
2023/12/06 01:13:52;;;;;;;3.38;3.00;;;5.80;99.90;;;6.00;100.00;99916.97;4882306;28;24430;-71
2023/12/06 01:16:14;;;;;;;3.15;2.85;;;5.80;99.90;;;5.99;100.00;99921.31;4874109;28;24517;-70
2023/12/06 01:18:36;;;;;;;2.90;2.70;;;5.90;99.90;;;5.98;100.00;99917.09;4872232;28;24446;-71
2023/12/06 01:20:58;;;;;;;2.90;2.70;;;5.80;99.90;;;5.99;100.00;99926.50;4887338;28;24426;-71
2023/12/06 01:23:20;;;;;;;2.88;2.67;;;5.90;99.90;;;6.00;100.00;99923.00;4879915;28;24538;-70
2023/12/06 01:25:42;;;;;;;2.90;2.70;;;5.90;99.90;;;6.01;100.00;99936.75;4891696;28;24450;-71
2023/12/06 01:28:04;;;;;;;3.03;2.80;;;5.80;99.90;;;5.98;100.00;99932.63;4883286;28;21277;-70
2023/12/06 01:30:26;;;;;;;2.70;2.60;;;5.80;99.90;;;5.99;100.00;99936.84;4886629;28;24442;-71
2023/12/06 01:32:48;;;;;;;2.80;2.60;;;5.80;99.90;;;5.90;100.00;99936.63;4892390;28;20793;-70
2023/12/06 01:35:10;;;;;;;3.10;2.90;;;5.80;99.90;;;5.83;100.00;99936.16;4890668;28;24470;-70
2023/12/06 01:37:32;;;;;;;2.63;2.42;;;5.80;99.90;;;5.84;100.00;99937.81;4893844;28;20789;-70
2023/12/06 01:39:54;;;;;;;2.80;2.60;;;5.70;99.90;;;5.86;100.00;99935.97;4881361;28;24459;-70
2023/12/06 01:42:16;;;;;;;2.90;2.70;;;5.70;99.90;;;5.88;100.00;99941.03;4885983;28;25093;-69
2023/12/06 01:44:37;;;;;;;2.90;2.70;;;5.70;99.90;;;5.85;100.00;99944.69;4891263;28;24424;-70
2023/12/06 01:47:00;;;;;;;2.83;2.63;;;5.70;99.90;;;5.82;100.00;99941.41;4892515;28;25023;-70
2023/12/06 01:49:23;;;;;;;3.03;2.80;;;5.70;99.90;;;5.85;100.00;99949.03;4885821;28;24545;-70
2023/12/06 01:51:45;;;;;;;3.13;2.70;;;5.70;99.90;;;5.81;100.00;99943.19;4895783;28;25064;-71
2023/12/06 01:54:08;;;;;;;2.90;2.70;;;5.70;99.90;;;5.75;100.00;99953.91;4893311;28;24562;-70
2023/12/06 01:56:30;;;;;;;2.60;2.40;;;5.70;99.90;;;5.74;100.00;99952.25;4895733;28;24466;-69
2023/12/06 01:58:53;;;;;;;2.90;2.70;;;5.60;99.90;;;5.70;100.00;99955.97;4894475;28;20849;-70
2023/12/06 02:01:15;;;;;;;2.88;2.67;;;5.60;99.90;;;5.70;100.00;99953.38;4894729;28;24434;-70
2023/12/06 02:03:38;;;;;;;3.10;2.80;;;5.60;99.90;;;5.64;100.00;99951.16;4891339;28;24439;-68
2023/12/06 02:06:02;;;;;;;2.90;2.70;;;5.60;99.90;;;5.68;100.00;99952.63;4879035;28;20767;-71
2023/12/06 02:08:24;;;;;;;2.90;2.70;;;5.50;99.90;;;5.75;100.00;99959.06;4884133;28;20859;-71
2023/12/06 02:10:46;;;;;;;3.20;3.00;;;5.60;99.90;;;5.73;100.00;99960.94;4879060;28;24514;-70
2023/12/06 02:13:08;;;;;;;3.15;2.85;;;5.60;99.90;;;5.68;100.00;99969.91;4887749;28;24447;-71
2023/12/06 02:15:30;;;;;;;2.70;2.50;;;5.60;99.90;;;5.69;100.00;99976.75;4889889;28;25140;-70
2023/12/06 02:17:53;;;;;;;3.10;2.90;;;5.60;99.90;;;5.71;100.00;99975.72;4895151;28;20761;-70
2023/12/06 02:20:15;;;;;;;3.00;2.80;;;5.60;99.90;;;5.74;100.00;99972.97;4868680;28;20853;-71
2023/12/06 02:22:38;;;;;;;4.15;2.70;;;5.60;99.90;;;5.80;100.00;99969.16;4893632;28;24489;-70
2023/12/06 02:25:02;;;;;;;3.10;2.80;;;5.60;99.90;;;5.82;100.00;99965.53;4878254;28;24427;-70
2023/12/06 02:27:25;;;;;;;2.80;2.60;;;5.70;99.90;;;5.84;100.00;99963.72;4881933;28;21310;-71
2023/12/06 02:29:47;;;;;;;3.00;2.80;;;5.70;99.90;;;5.84;100.00;99961.13;4894091;28;20805;-71
2023/12/06 02:32:09;;;;;;;3.00;2.72;;;5.70;99.90;;;5.85;100.00;99964.56;4884886;28;24427;-70
2023/12/06 02:34:32;;;;;;;2.92;2.72;;;5.70;99.90;;;5.84;100.00;99965.47;4891193;28;20781;-71
2023/12/06 02:36:59;;;;;;;3.10;2.90;;;5.70;99.90;;;5.89;100.00;99966.84;4894624;28;20762;-71
2023/12/06 02:39:22;;;;;;;2.70;2.50;;;5.70;99.90;;;5.95;100.00;99958.69;4881192;28;20924;-70
2023/12/06 02:41:44;;;;;;;2.33;2.17;;;5.80;99.90;;;6.00;100.00;99964.44;4880175;28;24450;-71
2023/12/06 02:44:06;;;;;;;3.00;2.80;;;5.90;99.90;;;6.01;100.00;99965.22;4884410;28;24533;-69
2023/12/06 02:46:29;;;;;;;2.70;2.50;;;5.90;99.90;;;6.02;100.00;99972.09;4878978;28;24518;-70
2023/12/06 02:48:51;;;;;;;2.60;2.45;;;5.90;99.90;;;5.98;100.00;99968.88;4861834;28;25075;-70
2023/12/06 02:51:13;;;;;;;2.40;2.30;;;5.90;99.90;;;5.95;100.00;99965.63;4900025;28;20844;-71
2023/12/06 02:53:35;;;;;;;3.15;2.70;;;5.80;99.90;;;5.92;100.00;99966.63;4890360;28;24449;-70
2023/12/06 02:55:57;;;;;;;2.70;2.50;;;5.90;99.90;;;5.94;100.00;99967.38;4881287;28;20878;-67
2023/12/06 02:58:18;;;;;;;2.85;2.65;;;5.80;99.90;;;5.93;100.00;99968.31;4886596;28;24476;-70
2023/12/06 03:00:40;;;;;;;2.30;2.20;;;5.80;99.90;;;5.89;100.00;99977.22;4885546;28;25210;-70
2023/12/06 03:03:02;;;;;;;2.58;2.38;;;5.80;99.90;;;5.88;100.00;99975.53;4879942;28;25011;-68
2023/12/06 03:05:24;;;;;;;2.60;2.40;;;5.70;99.90;;;5.91;100.00;99977.94;4883924;28;25007;-70
2023/12/06 03:07:46;;;;;;;4.30;2.30;;;5.80;99.90;;;5.90;100.00;99972.88;4882768;28;24479;-70
2023/12/06 03:10:09;;;;;;;2.42;2.33;;;5.80;99.90;;;5.92;100.00;99971.81;4890156;28;24840;-70
2023/12/06 03:12:30;;;;;;;2.22;2.13;;;5.80;99.90;;;5.94;100.00;99975.16;4873054;28;24797;-70
2023/12/06 03:14:52;;;;;;;2.42;2.22;;;5.80;99.90;;;5.92;100.00;99976.19;4885280;28;24805;-70
2023/12/06 03:17:14;;;;;;;2.60;2.40;;;5.80;99.90;;;5.95;100.00;99965.63;4886732;28;24526;-70
2023/12/06 03:19:36;;;;;;;2.20;2.10;;;5.80;99.90;;;5.98;100.00;99971.47;4880355;28;24451;-70
2023/12/06 03:21:58;;;;;;;2.72;2.53;;;5.80;99.90;;;6.01;100.00;99976.44;4884975;28;21182;-70
2023/12/06 03:24:21;;;;;;;2.50;2.40;;;5.90;99.90;;;6.04;100.00;99975.41;4894395;28;24427;-69
2023/12/06 03:26:43;;;;;;;2.40;2.30;;;5.90;99.90;;;6.04;100.00;99971.06;4880213;28;24514;-70
2023/12/06 03:29:04;;;;;;;2.42;2.30;;;5.90;99.90;;;6.04;100.00;99957.28;4874768;28;24449;-70
2023/12/06 03:31:26;;;;;;;2.30;2.10;;;5.90;99.90;;;6.09;100.00;99965.59;4884012;28;25063;-69
2023/12/06 03:33:48;;;;;;;2.30;2.10;;;5.90;99.90;;;6.09;100.00;99953.44;4883096;28;24541;-70
2023/12/06 03:36:12;;;;;;;2.08;1.98;;;5.90;99.90;;;6.11;100.00;99969.72;4875847;28;20813;-70
2023/12/06 03:38:34;;;;;;;2.10;2.00;;;5.90;99.90;;;6.07;100.00;99963.09;4884718;28;24995;-70
2023/12/06 03:40:56;;;;;;;2.10;2.00;;;5.90;99.90;;;6.10;100.00;99960.31;4893688;28;25047;-70
2023/12/06 03:43:18;;;;;;;2.10;2.00;;;5.90;99.90;;;6.09;100.00;99958.63;4880928;28;24473;-68
2023/12/06 03:45:40;;;;;;;2.50;2.30;;;6.00;99.90;;;6.03;100.00;99959.03;4881245;28;24454;-71
2023/12/06 03:48:02;;;;;;;2.10;2.00;;;5.90;99.90;;;6.02;100.00;99969.50;4885462;28;24453;-70
2023/12/06 03:50:24;;;;;;;2.70;2.50;;;5.90;99.90;;;6.03;100.00;99968.53;4887834;28;24445;-70
2023/12/06 03:52:46;;;;;;;2.05;1.95;;;5.90;99.90;;;6.02;100.00;99970.34;4886889;28;20773;-70
2023/12/06 03:55:08;;;;;;;1.90;1.90;;;5.90;99.90;;;6.05;100.00;99977.06;4883103;28;24519;-70
2023/12/06 03:57:30;;;;;;;2.30;2.20;;;5.90;99.90;;;6.08;100.00;99976.88;4889203;28;24430;-71
2023/12/06 03:59:52;;;;;;;2.20;2.10;;;5.90;99.90;;;6.12;100.00;99976.56;4882836;28;24453;-71
2023/12/06 04:02:14;;;;;;;2.40;2.20;;;5.90;99.90;;;6.12;100.00;99971.41;4893439;28;25060;-70
2023/12/06 04:04:36;;;;;;;2.10;2.00;;;6.00;99.90;;;6.12;100.00;99968.81;4891555;28;24976;-70
2023/12/06 04:06:58;;;;;;;2.22;2.13;;;6.00;99.90;;;6.13;100.00;99970.47;4893941;28;24785;-70
2023/12/06 04:09:20;;;;;;;2.28;2.17;;;6.00;99.90;;;6.13;100.00;99973.03;4893386;28;24480;-70
2023/12/06 04:11:42;;;;;;;2.20;2.10;;;6.00;99.90;;;6.16;100.00;99972.88;4877978;28;24439;-70
2023/12/06 04:14:04;;;;;;;2.20;2.10;;;6.00;99.90;;;6.18;100.00;99973.59;4885165;28;21186;-70
2023/12/06 04:16:26;;;;;;;2.35;2.25;;;6.00;99.90;;;6.20;100.00;99976.91;4893861;28;24427;-70
2023/12/06 04:18:48;;;;;;;2.13;2.03;;;6.00;99.90;;;6.22;100.00;99969.03;4891366;28;24439;-70
2023/12/06 04:21:10;;;;;;;2.30;2.13;;;6.10;99.90;;;6.21;100.00;99977.75;4893017;28;25023;-68
2023/12/06 04:23:31;;;;;;;2.20;2.10;;;6.10;99.90;;;6.18;100.00;99986.53;4893052;28;24431;-70
2023/12/06 04:25:53;;;;;;;2.20;2.10;;;6.00;99.90;;;6.20;100.00;99983.84;4894425;28;24462;-70
2023/12/06 04:28:15;;;;;;;2.15;2.05;;;6.00;99.90;;;6.19;100.00;99988.22;4889277;28;24439;-70
2023/12/06 04:30:37;;;;;;;2.50;2.30;;;6.00;99.90;;;6.20;100.00;99992.44;4882096;28;24980;-70
2023/12/06 04:33:00;;;;;;;2.45;2.35;;;6.00;99.90;;;6.23;100.00;99992.28;4889542;28;24459;-70
2023/12/06 04:35:22;;;;;;;2.40;2.30;;;6.00;99.90;;;6.26;100.00;99993.84;4884570;28;24470;-70
2023/12/06 04:37:44;;;;;;;2.17;2.00;;;6.00;99.90;;;6.32;100.00;99992.59;4886737;28;24677;-70
2023/12/06 04:40:07;;;;;;;2.40;2.25;;;6.10;99.90;;;6.34;100.00;99998.50;4879554;28;24893;-71
2023/12/06 04:42:29;;;;;;;2.58;2.30;;;6.10;99.90;;;6.36;100.00;99994.91;4886081;28;20767;-68
2023/12/06 04:44:51;;;;;;;2.50;2.30;;;6.10;99.90;;;6.37;100.00;99998.31;4888404;28;25001;-70
2023/12/06 04:47:13;;;;;;;2.40;2.30;;;6.20;99.90;;;6.40;100.00;99998.94;4875411;28;20757;-70
2023/12/06 04:49:35;;;;;;;2.47;2.38;;;6.20;99.90;;;6.42;100.00;100009.22;4871523;28;24910;-69
2023/12/06 04:52:01;;;;;;;2.50;2.40;;;6.20;99.90;;;6.43;100.00;100003.09;4875204;28;21383;-70
2023/12/06 04:54:25;;;;;;;2.33;2.22;;;6.20;99.90;;;6.44;100.00;100009.94;4882546;28;24521;-69
2023/12/06 04:56:47;;;;;;;2.60;2.50;;;6.20;99.90;;;6.44;100.00;100005.59;4891385;28;24446;-71
2023/12/06 04:59:11;;;;;;;2.47;2.37;;;6.30;99.90;;;6.46;100.00;100013.25;4893042;28;20856;-69
2023/12/06 05:01:33;;;;;;;2.53;2.33;;;6.20;99.90;;;6.46;100.00;100014.09;4878089;28;24459;-69
2023/12/06 05:03:55;;;;;;;2.55;2.40;;;6.20;99.90;;;6.45;100.00;100022.81;4874819;28;20763;-70
2023/12/06 05:06:17;;;;;;;2.70;2.50;;;6.30;99.90;;;6.44;100.00;100026.31;4872656;28;24455;-70
2023/12/06 05:08:39;;;;;;;2.55;2.40;;;6.20;99.90;;;6.43;100.00;100019.47;4872011;28;20815;-70
2023/12/06 05:11:01;;;;;;;2.42;2.22;;;6.20;99.90;;;6.44;100.00;100015.13;4880692;28;25032;-70
2023/12/06 05:13:23;;;;;;;2.90;2.70;;;6.30;99.90;;;6.48;100.00;100022.59;4894108;28;24723;-69
2023/12/06 05:15:45;;;;;;;2.30;2.20;;;6.30;99.90;;;6.49;100.00;100024.28;4894965;28;24499;-70
2023/12/06 05:18:07;;;;;;;2.80;2.60;;;6.30;99.90;;;6.50;100.00;100025.94;4894257;28;21341;-70
2023/12/06 05:20:29;;;;;;;2.90;2.70;;;6.30;99.90;;;6.50;100.00;100025.09;4896239;28;24498;-70
2023/12/06 05:22:51;;;;;;;3.30;3.00;;;6.30;99.90;;;6.50;100.00;100032.84;4878876;28;24534;-70
2023/12/06 05:25:13;;;;;;;4.10;3.20;;;6.30;99.90;;;6.52;100.00;100031.00;4879966;28;24518;-68
2023/12/06 05:27:35;;;;;;;3.90;3.03;;;6.30;99.90;;;6.52;100.00;100038.78;4887470;28;24427;-70
2023/12/06 05:29:57;;;;;;;3.03;2.83;;;6.30;99.90;;;6.49;100.00;100037.22;4890255;28;24424;-70
2023/12/06 05:32:19;;;;;;;3.20;3.00;;;6.30;99.90;;;6.49;100.00;100042.41;4877227;28;24522;-69
2023/12/06 05:34:41;;;;;;;3.00;2.80;;;6.30;99.90;;;6.52;100.00;100043.97;4876468;28;24432;-69
2023/12/06 05:37:03;;;;;;;3.05;2.85;;;6.30;99.90;;;6.52;100.00;100054.31;4912267;28;24580;-69
2023/12/06 05:39:25;;;;;;;3.17;2.60;;;6.30;99.90;;;6.49;100.00;100044.19;4888747;28;24434;-69
2023/12/06 05:41:47;;;;;;;3.55;3.25;;;6.30;99.90;;;6.48;100.00;100053.69;4877469;28;25186;-70
2023/12/06 05:44:09;;;;;;;3.30;2.88;;;6.30;99.90;;;6.46;100.00;100054.72;4880227;28;20855;-70
2023/12/06 05:46:31;;;;;;;3.17;2.97;;;6.30;99.90;;;6.46;100.00;100052.13;4877792;28;24817;-69
2023/12/06 05:48:53;;;;;;;3.60;3.30;;;6.30;99.90;;;6.46;100.00;100052.97;4876971;28;24465;-70
2023/12/06 05:51:16;;;;;;;3.65;3.35;;;6.30;99.90;;;6.47;100.00;100062.41;4883243;28;24824;-70
2023/12/06 05:53:38;;;;;;;3.60;3.20;;;6.30;99.90;;;6.48;100.00;100063.22;4882270;28;24462;-70
2023/12/06 05:56:00;;;;;;;3.40;3.20;;;6.30;99.90;;;6.49;100.00;100064.91;4886825;28;24450;-70
2023/12/06 05:58:22;;;;;;;3.55;3.25;;;6.30;99.90;;;6.52;100.00;100072.47;4895972;28;20884;-70
2023/12/06 06:00:44;;;;;;;3.63;3.33;;;6.30;99.90;;;6.53;100.00;100071.56;4888895;28;24516;-70
2023/12/06 06:03:06;;;;;;;4.03;3.60;;;6.30;99.90;;;6.54;100.00;100065.44;4893832;28;24453;-70
2023/12/06 06:05:28;;;;;;;3.80;3.50;;;6.30;99.90;;;6.56;100.00;100066.19;4881413;28;24915;-70
2023/12/06 06:07:50;;;;;;;3.10;2.90;;;6.30;99.90;;;6.59;100.00;100066.81;4876244;28;24509;-71
2023/12/06 06:10:12;;;;;;;3.97;3.58;;;6.40;99.90;;;6.62;100.00;100083.94;4875648;28;24535;-69
2023/12/06 06:12:34;;;;;;;4.40;3.70;;;6.40;99.90;;;6.62;100.00;100083.94;4876550;28;24420;-70
2023/12/06 06:14:56;;;;;;;4.05;3.65;;;6.40;99.90;;;6.62;100.00;100083.94;4895775;28;24427;-70
2023/12/06 06:17:18;;;;;;;5.27;3.97;;;6.50;99.90;;;6.58;100.00;100087.66;4894186;28;24518;-69
2023/12/06 06:19:41;;;;;;;3.85;2.92;;;6.40;99.90;;;6.59;100.00;100091.88;4887919;28;24523;-70
2023/12/06 06:22:03;;;;;;;5.65;3.90;;;6.50;99.90;;;6.57;100.00;100097.19;4894866;28;24482;-70
2023/12/06 06:24:25;;;;;;;6.10;4.20;;;6.40;99.90;;;6.44;99.75;100096.28;4892834;28;24442;-70
2023/12/06 06:26:47;;;;;;;4.60;3.63;;;6.40;99.90;;;6.43;98.21;100092.03;4893183;28;24518;-70
2023/12/06 06:29:09;;;;;;;6.75;4.30;;;6.40;99.90;;;6.35;97.40;100103.78;4890510;28;24538;-70
2023/12/06 06:31:31;;;;;;;6.97;4.70;;;6.30;99.90;;;6.34;96.80;100108.16;4889102;28;20886;-68
2023/12/06 06:33:53;;;;;;;6.72;4.95;;;6.20;99.90;;;6.29;95.56;100105.03;4890536;28;24438;-68
2023/12/06 06:36:15;;;;;;;6.80;5.20;;;6.20;99.90;;;6.26;96.19;100116.41;4893607;28;24486;-68
2023/12/06 06:38:37;;;;;;;6.30;4.85;;;6.10;99.90;;;6.11;96.62;100112.16;4892205;28;24446;-70
2023/12/06 06:41:00;;;;;;;7.50;4.80;;;6.10;99.90;;;5.99;96.76;100112.09;4886653;28;21574;-70
2023/12/06 06:43:21;;;;;;;7.43;5.25;;;6.00;99.90;;;6.07;95.36;100122.81;4893114;28;24529;-70
2023/12/06 06:45:44;;;;;;;6.78;5.15;;;6.00;99.90;;;6.09;94.81;100121.00;4890596;28;24539;-70
2023/12/06 06:48:06;;;;;;;8.70;5.65;;;6.00;99.90;;;6.08;94.20;100124.50;4890695;28;24481;-70
2023/12/06 06:50:28;;;;;;;7.22;5.45;;;6.00;99.90;;;5.91;93.95;100135.03;4891307;28;20792;-67
2023/12/06 06:52:50;;;;;;;8.38;5.30;;;5.90;99.90;;;5.94;93.80;100135.69;4889633;28;24462;-69
2023/12/06 06:55:11;;;;;;;6.77;4.80;;;5.90;99.90;;;5.98;93.88;100141.53;4891078;28;24449;-70
2023/12/06 06:57:33;;;;;;;6.22;5.03;;;5.90;99.90;;;5.99;93.58;100140.59;4883083;28;24439;-69
2023/12/06 06:59:55;;;;;;;6.93;5.30;;;5.80;99.90;;;5.93;93.38;100146.13;4891816;28;20877;-70
2023/12/06 07:02:18;;;;;;;7.88;5.70;;;5.80;99.90;;;5.87;93.50;100159.47;4890547;28;24577;-69
2023/12/06 07:04:41;;;;;;;6.47;5.30;;;5.80;99.90;;;5.92;93.10;100157.44;4897331;28;20765;-70
2023/12/06 07:07:03;;;;;;;6.70;4.90;;;5.80;99.90;;;5.88;92.73;100153.34;4887337;28;20829;-70
2023/12/06 07:09:25;;;;;;;6.65;4.85;;;5.80;99.90;;;5.79;92.33;100157.28;4895618;28;25049;-70
2023/12/06 07:11:47;;;;;;;7.40;5.80;;;5.80;99.90;;;5.78;91.88;100172.91;4885524;28;20925;-69
2023/12/06 07:14:09;;;;;;;6.63;4.80;;;5.70;99.90;;;5.80;91.77;100176.25;4882187;28;24542;-69
2023/12/06 07:16:31;;;;;;;5.22;4.05;;;5.70;99.90;;;5.79;90.90;100177.19;4906901;28;21328;-70
2023/12/06 07:18:53;;;;;;;6.18;4.50;;;5.70;99.90;;;5.81;89.92;100175.31;4888122;28;24990;-71
2023/12/06 07:21:15;;;;;;;4.10;3.70;;;5.70;99.90;;;5.77;90.28;100179.84;4892212;28;24462;-69
2023/12/06 07:23:38;;;;;;;3.67;3.38;;;5.70;99.90;;;5.72;88.93;100192.25;4889840;28;24844;-68
2023/12/06 07:25:59;;;;;;;4.22;3.50;;;5.70;99.90;;;5.74;89.38;100192.97;4871612;28;21070;-69
2023/12/06 07:28:21;;;;;;;3.97;3.58;;;5.70;99.90;;;5.73;87.97;100199.06;4888600;28;24473;-70
2023/12/06 07:30:43;;;;;;;4.72;3.97;;;5.60;99.90;;;5.66;88.57;100199.53;4883789;28;24473;-69
2023/12/06 07:33:07;;;;;;;4.05;3.50;;;5.60;99.90;;;5.64;88.99;100198.78;4878655;28;24446;-70
2023/12/06 07:35:29;;;;;;;4.22;3.78;;;5.60;99.90;;;5.63;89.00;100207.47;4892085;28;21209;-70
2023/12/06 07:37:51;;;;;;;3.88;3.58;;;5.60;99.90;;;5.60;88.55;100208.47;4890140;28;24446;-70
2023/12/06 07:40:13;;;;;;;4.72;3.55;;;5.50;99.90;;;5.67;88.58;100212.38;4888477;28;25246;-67
2023/12/06 07:42:36;;;;;;;4.82;3.70;;;5.50;99.90;;;5.66;88.42;100215.06;4881544;28;24474;-70
2023/12/06 07:44:57;;;;;;;3.70;3.40;;;5.60;99.90;;;5.50;88.95;100213.34;4889989;28;25072;-70
2023/12/06 07:47:19;;;;;;;5.47;3.85;;;5.50;99.90;;;5.53;88.04;100222.69;4885267;28;24791;-70
2023/12/06 07:49:42;;;;;;;4.50;3.50;;;5.50;99.90;;;5.58;88.19;100220.66;4881703;28;24450;-69
2023/12/06 07:52:04;;;;;;;4.38;3.45;;;5.50;99.90;;;5.61;88.08;100236.03;4882308;28;20944;-70
2023/12/06 07:54:26;;;;;;;3.60;3.30;;;5.50;99.90;;;5.58;88.28;100225.84;4880635;28;24821;-67
2023/12/06 07:56:48;;;;;;;4.80;2.90;;;5.60;99.90;;;5.58;87.26;100230.19;4879117;28;20874;-70
2023/12/06 07:59:10;;;;;;;3.60;3.30;;;5.50;99.90;;;5.59;88.02;100234.44;4880297;28;21253;-70
2023/12/06 08:01:32;;;;;;;4.05;3.47;;;5.60;99.90;;;5.64;87.33;100235.88;4892181;28;24858;-70
2023/12/06 08:03:54;;;;;;;4.10;3.50;;;5.50;99.90;;;5.68;86.89;100245.09;4879632;28;24841;-70
2023/12/06 08:06:17;;;;;;;3.67;2.50;;;5.60;99.90;;;5.72;86.79;100240.56;4880664;28;24484;-70
2023/12/06 08:08:39;;;;;;;3.50;3.05;;;5.60;99.90;;;5.75;85.78;100248.19;4886640;28;24510;-70
2023/12/06 08:11:01;;;;;;;3.13;2.83;;;5.60;99.90;;;5.69;86.39;100253.69;4876209;28;20767;-70
2023/12/06 08:13:25;;;;;;;3.45;3.15;;;5.60;99.90;;;5.64;87.00;100259.16;4877265;28;24631;-70
2023/12/06 08:15:48;;;;;;;3.20;3.00;;;5.60;99.90;;;5.72;86.24;100259.53;4885193;28;20766;-70
2023/12/06 08:18:10;;;;;;;3.60;3.30;;;5.60;99.90;;;5.78;86.47;100266.94;4885188;28;24512;-69
2023/12/06 08:20:32;;;;;;;4.15;3.40;;;5.70;99.90;;;5.81;86.00;100269.38;4892547;28;24522;-67
2023/12/06 08:22:55;;;;;;;3.60;3.10;;;5.70;99.90;;;5.79;86.55;100271.19;4877555;28;24793;-70
2023/12/06 08:25:17;;;;;;;3.90;3.60;;;5.70;99.90;;;5.72;86.12;100277.66;4872499;28;24877;-69
2023/12/06 08:27:39;;;;;;;4.05;3.67;;;5.70;99.90;;;5.73;87.03;100281.09;4873775;28;24973;-68
2023/12/06 08:30:02;;;;;;;4.18;3.53;;;5.60;99.90;;;5.65;86.97;100281.50;4887931;28;20818;-70
2023/12/06 08:32:25;;;;;;;4.00;3.60;;;5.60;99.90;;;5.73;86.27;100286.25;4874515;28;20771;-70
2023/12/06 08:34:47;;;;;;;3.60;3.28;;;5.60;99.90;;;5.84;86.54;100297.69;4889380;28;24439;-70
2023/12/06 08:37:09;;;;;;;4.28;3.80;;;5.70;99.90;;;5.87;85.57;100296.69;4883563;28;24441;-70
2023/12/06 08:39:34;;;;;;;4.32;3.80;;;5.70;99.90;;;5.83;85.43;100293.41;4881352;28;24447;-70
2023/12/06 08:41:56;;;;;;;4.35;3.40;;;5.80;99.90;;;5.89;85.13;100302.59;4886396;28;20879;-69
2023/12/06 08:44:18;;;;;;;5.25;3.70;;;5.80;99.90;;;5.95;85.85;100297.06;4888893;28;20877;-70
2023/12/06 08:46:42;;;;;;;3.70;3.40;;;5.80;99.90;;;5.99;84.96;100296.78;4884477;28;24449;-69
2023/12/06 08:49:04;;;;;;;5.00;3.72;;;5.90;99.90;;;6.01;84.73;100307.06;4898166;28;25223;-70
2023/12/06 08:51:26;;;;;;;3.78;3.47;;;5.90;99.90;;;6.03;84.64;100305.22;4892891;28;20872;-70
2023/12/06 08:53:48;;;;;;;5.70;3.90;;;5.90;99.90;;;6.07;85.25;100304.09;4885214;28;24855;-70
2023/12/06 08:56:10;;;;;;;4.05;3.65;;;5.90;99.90;;;6.10;84.59;100311.72;4879459;28;24907;-69
2023/12/06 08:58:31;;;;;;;4.75;4.07;;;5.90;99.90;;;6.04;84.60;100312.91;4883758;28;24445;-70
2023/12/06 09:00:54;;;;;;;4.57;3.67;;;5.90;99.90;;;5.90;85.33;100318.03;4884652;28;24435;-71
2023/12/06 09:03:16;;;;;;;4.97;3.90;;;5.90;99.90;;;5.97;84.77;100321.09;4885933;28;24862;-68
2023/12/06 09:05:38;;;;;;;4.22;3.83;;;5.90;99.90;;;5.93;83.81;100323.06;4894078;28;24457;-70
2023/12/06 09:08:00;;;;;;;5.10;4.10;;;5.90;99.90;;;5.96;83.98;100325.44;4884318;28;24442;-69
2023/12/06 09:10:22;;;;;;;5.72;4.10;;;5.90;99.90;;;5.98;84.51;100328.81;4889978;28;24719;-70
2023/12/06 09:12:44;;;;;;;5.32;4.45;;;5.90;99.90;;;6.06;85.29;100336.97;4885373;28;24530;-70
2023/12/06 09:15:07;;;;;;;5.82;3.92;;;5.90;99.90;;;6.12;83.74;100336.59;4894998;28;24465;-68
2023/12/06 09:17:31;;;;;;;4.47;3.90;;;6.00;99.90;;;6.18;84.36;100338.84;4883925;28;20758;-69
2023/12/06 09:19:53;;;;;;;4.72;3.88;;;6.00;99.90;;;6.21;84.04;100338.66;4877467;28;24477;-69
2023/12/06 09:22:16;;;;;;;5.63;4.53;;;6.00;99.90;;;6.20;82.70;100347.34;4880467;28;24520;-68
2023/12/06 09:24:43;;;;;;;5.30;4.10;;;6.10;99.90;;;6.21;83.63;100348.19;4886498;28;20796;-70
2023/12/06 09:27:05;;;;;;;6.30;4.63;;;6.10;99.90;;;6.17;83.58;100354.47;4875978;28;24836;-66
2023/12/06 09:29:27;;;;;;;5.13;4.23;;;6.00;99.90;;;6.20;83.71;100349.94;4893327;28;24545;-69
2023/12/06 09:31:49;;;;;;;4.90;4.10;;;6.10;99.90;;;6.24;84.15;100355.75;4896288;28;20756;-69
2023/12/06 09:34:11;;;;;;;4.70;4.20;;;6.10;99.90;;;6.21;83.15;100361.16;4886038;28;24542;-69
2023/12/06 09:36:39;;;;;;;6.32;4.55;;;6.10;99.90;;;6.28;83.48;100367.63;4885576;28;20858;-70
2023/12/06 09:39:01;;;;;;;6.70;4.45;;;6.10;99.90;;;6.26;83.69;100375.47;4887510;28;20805;-71
2023/12/06 09:41:31;;;;;;;6.30;4.50;;;6.10;99.90;;;6.37;82.87;100374.03;4891523;28;20813;-70
2023/12/06 09:43:54;;;;;;;5.95;4.60;;;6.20;99.90;;;6.30;83.10;100370.13;4887104;28;20823;-69
2023/12/06 09:46:16;;;;;;;5.68;4.50;;;6.20;99.90;;;6.40;83.05;100379.03;4883098;28;24526;-67
2023/12/06 09:48:38;;;;;;;4.60;4.07;;;6.20;99.90;;;6.50;81.81;100380.16;4888093;28;24533;-70
2023/12/06 09:51:01;;;;;;;4.93;4.00;;;6.30;99.90;;;6.59;81.98;100388.22;4897744;28;20811;-69
2023/12/06 09:53:24;;;;;;;6.20;4.47;;;6.40;99.90;;;6.68;81.78;100386.84;4877737;28;24443;-69
2023/12/06 09:55:47;;;;;;;4.97;4.13;;;6.40;99.90;;;6.71;81.34;100378.88;4894310;28;24831;-67
2023/12/06 09:58:09;;;;;;;5.43;4.00;;;6.50;99.90;;;6.75;80.87;100393.34;4886827;28;24518;-69
2023/12/06 10:00:31;;;;;;;5.38;4.70;;;6.50;99.90;;;6.77;80.15;100387.13;4878664;28;24600;-69
2023/12/06 10:02:55;;;;;;;6.35;4.35;;;6.50;99.90;;;6.76;80.23;100402.78;4894554;28;24457;-69